sensor_id;sensor_type;location;lat;lon;timestamp;pressure;altitude;pressure_sealevel;temperature;humidity
68075;BME280;54864;52.002;5.468;2022-08-06T00:00:41;102404.97;;;14.63;60.99
68075;BME280;54864;52.002;5.468;2022-08-06T00:02:04;102413.75;;;14.65;61.15
68075;BME280;54864;52.002;5.468;2022-08-06T00:03:25;102411.97;;;14.65;60.96
68075;BME280;54864;52.002;5.468;2022-08-06T00:04:47;102415.44;;;14.67;61.58
68075;BME280;54864;52.002;5.468;2022-08-06T00:06:09;102409.69;;;14.54;61.52
68075;BME280;54864;52.002;5.468;2022-08-06T00:07:31;102403.06;;;14.41;61.98
68075;BME280;54864;52.002;5.468;2022-08-06T00:08:53;102415.34;;;14.45;62.26
68075;BME280;54864;52.002;5.468;2022-08-06T00:10:16;102420.97;;;14.61;61.67
68075;BME280;54864;52.002;5.468;2022-08-06T00:11:39;102415.72;;;14.59;61.32
68075;BME280;54864;52.002;5.468;2022-08-06T00:13:02;102425.06;;;14.70;61.22
68075;BME280;54864;52.002;5.468;2022-08-06T00:14:24;102411.38;;;14.57;61.20
68075;BME280;54864;52.002;5.468;2022-08-06T00:15:46;102416.03;;;14.50;61.86
68075;BME280;54864;52.002;5.468;2022-08-06T00:17:08;102416.63;;;14.58;61.52
68075;BME280;54864;52.002;5.468;2022-08-06T00:18:29;102426.16;;;14.64;61.66
68075;BME280;54864;52.002;5.468;2022-08-06T00:19:51;102427.13;;;14.62;61.37
68075;BME280;54864;52.002;5.468;2022-08-06T00:21:13;102422.09;;;14.54;61.48
68075;BME280;54864;52.002;5.468;2022-08-06T00:22:35;102430.81;;;14.57;61.62
68075;BME280;54864;52.002;5.468;2022-08-06T00:23:56;102421.31;;;14.52;61.75
68075;BME280;54864;52.002;5.468;2022-08-06T00:25:18;102426.44;;;14.56;61.61
68075;BME280;54864;52.002;5.468;2022-08-06T00:26:41;102432.13;;;14.46;61.96
68075;BME280;54864;52.002;5.468;2022-08-06T00:28:03;102433.88;;;14.47;62.09
68075;BME280;54864;52.002;5.468;2022-08-06T00:29:26;102419.69;;;14.48;62.24
68075;BME280;54864;52.002;5.468;2022-08-06T00:30:48;102425.22;;;14.40;61.91
68075;BME280;54864;52.002;5.468;2022-08-06T00:32:09;102420.91;;;14.38;61.96
68075;BME280;54864;52.002;5.468;2022-08-06T00:33:31;102421.81;;;14.37;62.50
68075;BME280;54864;52.002;5.468;2022-08-06T00:34:54;102421.72;;;14.40;62.39
68075;BME280;54864;52.002;5.468;2022-08-06T00:36:16;102426.94;;;14.43;62.55
68075;BME280;54864;52.002;5.468;2022-08-06T00:37:38;102423.41;;;14.42;62.39
68075;BME280;54864;52.002;5.468;2022-08-06T00:39:01;102418.88;;;14.46;62.19
68075;BME280;54864;52.002;5.468;2022-08-06T00:40:28;102424.28;;;14.43;62.53
68075;BME280;54864;52.002;5.468;2022-08-06T00:41:50;102429.47;;;14.46;62.38
68075;BME280;54864;52.002;5.468;2022-08-06T00:43:13;102438.19;;;14.49;62.62
68075;BME280;54864;52.002;5.468;2022-08-06T00:44:35;102437.13;;;14.55;62.33
68075;BME280;54864;52.002;5.468;2022-08-06T00:45:57;102441.59;;;14.53;62.67
68075;BME280;54864;52.002;5.468;2022-08-06T00:47:18;102441.84;;;14.47;62.53
68075;BME280;54864;52.002;5.468;2022-08-06T00:48:41;102440.50;;;14.34;62.72
68075;BME280;54864;52.002;5.468;2022-08-06T00:50:03;102433.97;;;14.17;63.00
68075;BME280;54864;52.002;5.468;2022-08-06T00:51:25;102438.91;;;14.28;63.18
68075;BME280;54864;52.002;5.468;2022-08-06T00:52:48;102435.38;;;14.27;63.20
68075;BME280;54864;52.002;5.468;2022-08-06T00:54:09;102456.06;;;14.18;63.60
68075;BME280;54864;52.002;5.468;2022-08-06T00:55:31;102447.28;;;14.16;63.45
68075;BME280;54864;52.002;5.468;2022-08-06T00:56:52;102445.94;;;14.29;63.16
68075;BME280;54864;52.002;5.468;2022-08-06T00:58:16;102433.56;;;14.03;63.54
68075;BME280;54864;52.002;5.468;2022-08-06T00:59:37;102456.16;;;14.15;63.35
68075;BME280;54864;52.002;5.468;2022-08-06T01:01:00;102452.69;;;14.13;63.58
68075;BME280;54864;52.002;5.468;2022-08-06T01:02:21;102459.84;;;14.11;63.88
68075;BME280;54864;52.002;5.468;2022-08-06T01:03:44;102450.66;;;13.94;64.13
68075;BME280;54864;52.002;5.468;2022-08-06T01:05:06;102447.84;;;13.99;63.55
68075;BME280;54864;52.002;5.468;2022-08-06T01:06:28;102471.63;;;14.02;63.90
68075;BME280;54864;52.002;5.468;2022-08-06T01:07:51;102453.75;;;14.07;63.44
68075;BME280;54864;52.002;5.468;2022-08-06T01:09:12;102465.41;;;14.03;63.88
68075;BME280;54864;52.002;5.468;2022-08-06T01:10:34;102451.28;;;14.03;63.64
68075;BME280;54864;52.002;5.468;2022-08-06T01:11:57;102468.34;;;14.20;63.33
68075;BME280;54864;52.002;5.468;2022-08-06T01:13:20;102457.06;;;14.14;63.78
68075;BME280;54864;52.002;5.468;2022-08-06T01:14:43;102463.97;;;14.19;63.27
68075;BME280;54864;52.002;5.468;2022-08-06T01:16:12;102463.91;;;14.21;63.65
68075;BME280;54864;52.002;5.468;2022-08-06T01:17:42;102448.63;;;14.03;63.62
68075;BME280;54864;52.002;5.468;2022-08-06T01:19:25;102470.22;;;14.17;63.83
68075;BME280;54864;52.002;5.468;2022-08-06T01:21:12;102465.50;;;14.00;64.19
68075;BME280;54864;52.002;5.468;2022-08-06T01:23:02;102466.56;;;13.94;64.12
68075;BME280;54864;52.002;5.468;2022-08-06T01:24:43;102465.84;;;13.89;64.03
68075;BME280;54864;52.002;5.468;2022-08-06T01:26:35;102472.13;;;13.87;64.33
68075;BME280;54864;52.002;5.468;2022-08-06T01:28:09;102467.63;;;13.89;64.46
68075;BME280;54864;52.002;5.468;2022-08-06T01:29:37;102468.94;;;13.76;64.71
68075;BME280;54864;52.002;5.468;2022-08-06T01:31:03;102471.59;;;13.76;65.06
68075;BME280;54864;52.002;5.468;2022-08-06T01:32:30;102474.25;;;13.76;64.70
68075;BME280;54864;52.002;5.468;2022-08-06T01:33:57;102479.94;;;13.91;64.20
68075;BME280;54864;52.002;5.468;2022-08-06T01:35:25;102465.91;;;13.88;64.80
68075;BME280;54864;52.002;5.468;2022-08-06T01:36:54;102473.09;;;13.84;64.54
68075;BME280;54864;52.002;5.468;2022-08-06T01:38:25;102482.06;;;13.80;64.71
68075;BME280;54864;52.002;5.468;2022-08-06T01:39:53;102469.66;;;13.81;64.94
68075;BME280;54864;52.002;5.468;2022-08-06T01:41:21;102473.66;;;13.94;64.73
68075;BME280;54864;52.002;5.468;2022-08-06T01:42:54;102468.91;;;13.77;64.98
68075;BME280;54864;52.002;5.468;2022-08-06T01:44:20;102484.13;;;13.99;64.94
68075;BME280;54864;52.002;5.468;2022-08-06T01:45:44;102481.31;;;14.03;64.78
68075;BME280;54864;52.002;5.468;2022-08-06T01:47:11;102482.19;;;14.04;64.53
68075;BME280;54864;52.002;5.468;2022-08-06T01:48:36;102483.19;;;14.00;64.35
68075;BME280;54864;52.002;5.468;2022-08-06T01:50:02;102472.78;;;13.93;64.63
68075;BME280;54864;52.002;5.468;2022-08-06T01:51:28;102483.09;;;14.03;64.19
68075;BME280;54864;52.002;5.468;2022-08-06T01:52:53;102480.03;;;13.88;64.46
68075;BME280;54864;52.002;5.468;2022-08-06T01:54:15;102477.28;;;13.91;64.33
68075;BME280;54864;52.002;5.468;2022-08-06T01:55:41;102475.91;;;13.80;64.55
68075;BME280;54864;52.002;5.468;2022-08-06T01:57:03;102481.16;;;13.81;64.81
68075;BME280;54864;52.002;5.468;2022-08-06T01:58:31;102480.31;;;13.79;64.78
68075;BME280;54864;52.002;5.468;2022-08-06T01:59:55;102489.25;;;13.77;64.67
68075;BME280;54864;52.002;5.468;2022-08-06T02:01:18;102490.25;;;13.73;64.91
68075;BME280;54864;52.002;5.468;2022-08-06T02:02:42;102484.00;;;13.75;65.06
68075;BME280;54864;52.002;5.468;2022-08-06T02:04:05;102488.47;;;13.73;64.88
68075;BME280;54864;52.002;5.468;2022-08-06T02:05:28;102482.06;;;13.80;64.47
68075;BME280;54864;52.002;5.468;2022-08-06T02:06:51;102489.66;;;13.91;64.56
68075;BME280;54864;52.002;5.468;2022-08-06T02:08:17;102484.72;;;13.80;64.76
68075;BME280;54864;52.002;5.468;2022-08-06T02:09:43;102486.69;;;13.74;65.14
68075;BME280;54864;52.002;5.468;2022-08-06T02:11:08;102491.50;;;13.89;64.39
68075;BME280;54864;52.002;5.468;2022-08-06T02:12:33;102488.94;;;13.86;64.25
68075;BME280;54864;52.002;5.468;2022-08-06T02:14:00;102489.41;;;13.72;65.11
68075;BME280;54864;52.002;5.468;2022-08-06T02:15:26;102497.56;;;13.64;64.80
68075;BME280;54864;52.002;5.468;2022-08-06T02:16:49;102496.78;;;13.61;65.22
68075;BME280;54864;52.002;5.468;2022-08-06T02:18:13;102495.88;;;13.62;64.94
68075;BME280;54864;52.002;5.468;2022-08-06T02:19:37;102488.84;;;13.61;64.70
68075;BME280;54864;52.002;5.468;2022-08-06T02:21:03;102495.19;;;13.55;65.33
68075;BME280;54864;52.002;5.468;2022-08-06T02:22:29;102491.63;;;13.56;65.72
68075;BME280;54864;52.002;5.468;2022-08-06T02:23:54;102496.28;;;13.48;65.79
68075;BME280;54864;52.002;5.468;2022-08-06T02:25:17;102491.81;;;13.50;65.88
68075;BME280;54864;52.002;5.468;2022-08-06T02:26:41;102493.56;;;13.51;65.82
68075;BME280;54864;52.002;5.468;2022-08-06T02:28:04;102482.28;;;13.45;65.42
68075;BME280;54864;52.002;5.468;2022-08-06T02:29:30;102492.00;;;13.44;65.45
68075;BME280;54864;52.002;5.468;2022-08-06T02:31:02;102494.75;;;13.41;65.79
68075;BME280;54864;52.002;5.468;2022-08-06T02:32:25;102491.91;;;13.47;65.42
68075;BME280;54864;52.002;5.468;2022-08-06T02:33:46;102492.72;;;13.49;65.27
68075;BME280;54864;52.002;5.468;2022-08-06T02:35:09;102486.41;;;13.53;65.53
68075;BME280;54864;52.002;5.468;2022-08-06T02:36:34;102500.72;;;13.48;65.75
68075;BME280;54864;52.002;5.468;2022-08-06T02:38:02;102481.59;;;13.38;65.45
68075;BME280;54864;52.002;5.468;2022-08-06T02:39:29;102487.53;;;13.46;65.71
68075;BME280;54864;52.002;5.468;2022-08-06T02:40:57;102481.69;;;13.35;65.84
68075;BME280;54864;52.002;5.468;2022-08-06T02:42:25;102490.41;;;13.39;66.10
68075;BME280;54864;52.002;5.468;2022-08-06T02:43:51;102497.25;;;13.46;65.92
68075;BME280;54864;52.002;5.468;2022-08-06T02:45:21;102494.03;;;13.36;65.88
68075;BME280;54864;52.002;5.468;2022-08-06T02:46:50;102490.00;;;13.52;65.65
68075;BME280;54864;52.002;5.468;2022-08-06T02:48:21;102489.22;;;13.49;65.74
68075;BME280;54864;52.002;5.468;2022-08-06T02:49:47;102492.09;;;13.41;65.49
68075;BME280;54864;52.002;5.468;2022-08-06T02:51:15;102491.66;;;13.55;65.25
68075;BME280;54864;52.002;5.468;2022-08-06T02:52:45;102490.03;;;13.51;65.59
68075;BME280;54864;52.002;5.468;2022-08-06T02:54:12;102491.13;;;13.44;65.51
68075;BME280;54864;52.002;5.468;2022-08-06T02:55:42;102497.41;;;13.41;65.61
68075;BME280;54864;52.002;5.468;2022-08-06T02:58:51;102488.41;;;13.47;65.55
68075;BME280;54864;52.002;5.468;2022-08-06T03:00:16;102498.16;;;13.45;65.52
68075;BME280;54864;52.002;5.468;2022-08-06T03:01:42;102486.63;;;13.47;64.65
68075;BME280;54864;52.002;5.468;2022-08-06T03:03:07;102499.63;;;13.25;65.95
68075;BME280;54864;52.002;5.468;2022-08-06T03:04:32;102500.22;;;13.35;65.54
68075;BME280;54864;52.002;5.468;2022-08-06T03:05:56;102503.44;;;13.17;66.25
68075;BME280;54864;52.002;5.468;2022-08-06T03:07:20;102505.22;;;13.15;65.83
68075;BME280;54864;52.002;5.468;2022-08-06T03:08:45;102499.19;;;13.10;66.07
68075;BME280;54864;52.002;5.468;2022-08-06T03:10:08;102507.88;;;13.15;66.13
68075;BME280;54864;52.002;5.468;2022-08-06T03:11:33;102508.69;;;13.18;66.04
68075;BME280;54864;52.002;5.468;2022-08-06T03:12:57;102506.84;;;13.20;66.32
68075;BME280;54864;52.002;5.468;2022-08-06T03:14:19;102506.03;;;13.18;65.71
68075;BME280;54864;52.002;5.468;2022-08-06T03:15:43;102509.78;;;13.10;66.26
68075;BME280;54864;52.002;5.468;2022-08-06T03:17:07;102508.97;;;13.08;66.95
68075;BME280;54864;52.002;5.468;2022-08-06T03:18:34;102504.53;;;13.08;66.42
68075;BME280;54864;52.002;5.468;2022-08-06T03:20:00;102511.44;;;13.14;66.08
68075;BME280;54864;52.002;5.468;2022-08-06T03:21:23;102502.84;;;13.06;66.95
68075;BME280;54864;52.002;5.468;2022-08-06T03:22:50;102508.75;;;13.15;66.54
68075;BME280;54864;52.002;5.468;2022-08-06T03:24:13;102513.25;;;13.12;66.90
68075;BME280;54864;52.002;5.468;2022-08-06T03:25:38;102512.53;;;13.07;66.77
68075;BME280;54864;52.002;5.468;2022-08-06T03:27:01;102522.94;;;13.13;66.69
68075;BME280;54864;52.002;5.468;2022-08-06T03:28:24;102510.59;;;13.12;66.59
68075;BME280;54864;52.002;5.468;2022-08-06T03:29:48;102520.28;;;13.13;66.66
68075;BME280;54864;52.002;5.468;2022-08-06T03:31:10;102513.16;;;13.15;66.21
68075;BME280;54864;52.002;5.468;2022-08-06T03:32:36;102516.94;;;13.06;66.74
68075;BME280;54864;52.002;5.468;2022-08-06T03:33:58;102513.56;;;12.99;67.00
68075;BME280;54864;52.002;5.468;2022-08-06T03:35:21;102522.09;;;13.11;66.56
68075;BME280;54864;52.002;5.468;2022-08-06T03:36:43;102525.03;;;13.00;66.42
68075;BME280;54864;52.002;5.468;2022-08-06T03:38:07;102523.03;;;13.10;66.68
68075;BME280;54864;52.002;5.468;2022-08-06T03:39:30;102521.59;;;12.96;66.56
68075;BME280;54864;52.002;5.468;2022-08-06T03:40:54;102523.56;;;12.90;67.06
68075;BME280;54864;52.002;5.468;2022-08-06T03:42:17;102523.28;;;12.99;66.61
68075;BME280;54864;52.002;5.468;2022-08-06T03:43:39;102526.16;;;12.91;67.29
68075;BME280;54864;52.002;5.468;2022-08-06T03:45:02;102526.16;;;12.91;66.82
68075;BME280;54864;52.002;5.468;2022-08-06T03:46:26;102518.03;;;12.97;67.18
68075;BME280;54864;52.002;5.468;2022-08-06T03:47:54;102530.38;;;12.98;66.82
68075;BME280;54864;52.002;5.468;2022-08-06T03:49:20;102525.22;;;12.94;66.89
68075;BME280;54864;52.002;5.468;2022-08-06T03:50:48;102521.50;;;12.99;66.78
68075;BME280;54864;52.002;5.468;2022-08-06T03:52:12;102524.84;;;13.08;66.58
68075;BME280;54864;52.002;5.468;2022-08-06T03:53:42;102524.88;;;13.06;66.72
68075;BME280;54864;52.002;5.468;2022-08-06T03:55:08;102521.56;;;12.98;67.29
68075;BME280;54864;52.002;5.468;2022-08-06T03:56:37;102528.28;;;13.11;66.75
68075;BME280;54864;52.002;5.468;2022-08-06T03:58:05;102524.22;;;12.98;66.97
68075;BME280;54864;52.002;5.468;2022-08-06T03:59:32;102523.50;;;12.91;66.69
68075;BME280;54864;52.002;5.468;2022-08-06T04:01:09;102529.75;;;12.89;66.93
68075;BME280;54864;52.002;5.468;2022-08-06T04:02:35;102524.34;;;12.93;66.40
68075;BME280;54864;52.002;5.468;2022-08-06T04:04:00;102525.38;;;12.88;67.13
68075;BME280;54864;52.002;5.468;2022-08-06T04:05:24;102527.94;;;12.91;66.99
68075;BME280;54864;52.002;5.468;2022-08-06T04:06:47;102532.28;;;12.93;66.74
68075;BME280;54864;52.002;5.468;2022-08-06T04:08:10;102541.72;;;13.04;66.30
68075;BME280;54864;52.002;5.468;2022-08-06T04:09:34;102537.41;;;13.01;66.62
68075;BME280;54864;52.002;5.468;2022-08-06T04:10:56;102548.75;;;13.05;66.59
68075;BME280;54864;52.002;5.468;2022-08-06T04:12:20;102543.72;;;12.94;66.80
68075;BME280;54864;52.002;5.468;2022-08-06T04:13:43;102542.81;;;12.95;66.69
68075;BME280;54864;52.002;5.468;2022-08-06T04:15:07;102540.97;;;12.98;67.13
68075;BME280;54864;52.002;5.468;2022-08-06T04:16:30;102533.09;;;12.95;66.74
68075;BME280;54864;52.002;5.468;2022-08-06T04:17:54;102547.03;;;13.04;66.86
68075;BME280;54864;52.002;5.468;2022-08-06T04:19:22;102550.50;;;13.06;66.30
68075;BME280;54864;52.002;5.468;2022-08-06T04:20:48;102545.44;;;12.96;67.05
68075;BME280;54864;52.002;5.468;2022-08-06T04:22:12;102547.28;;;12.93;67.38
68075;BME280;54864;52.002;5.468;2022-08-06T04:23:34;102544.78;;;12.88;67.58
68075;BME280;54864;52.002;5.468;2022-08-06T04:24:58;102549.06;;;12.92;67.68
68075;BME280;54864;52.002;5.468;2022-08-06T04:26:22;102543.59;;;12.98;67.11
68075;BME280;54864;52.002;5.468;2022-08-06T04:27:48;102549.97;;;12.91;67.24
68075;BME280;54864;52.002;5.468;2022-08-06T04:29:12;102546.72;;;12.82;67.76
68075;BME280;54864;52.002;5.468;2022-08-06T04:30:38;102553.59;;;12.89;67.51
68075;BME280;54864;52.002;5.468;2022-08-06T04:32:02;102551.97;;;12.83;67.84
68075;BME280;54864;52.002;5.468;2022-08-06T04:33:26;102554.50;;;12.88;67.58
68075;BME280;54864;52.002;5.468;2022-08-06T04:34:50;102561.44;;;12.92;67.34
68075;BME280;54864;52.002;5.468;2022-08-06T04:36:13;102552.63;;;12.91;67.45
68075;BME280;54864;52.002;5.468;2022-08-06T04:37:36;102554.16;;;13.01;67.41
68075;BME280;54864;52.002;5.468;2022-08-06T04:38:57;102555.94;;;13.01;67.52
68075;BME280;54864;52.002;5.468;2022-08-06T04:40:20;102556.78;;;13.01;67.38
68075;BME280;54864;52.002;5.468;2022-08-06T04:41:42;102556.78;;;13.01;67.17
68075;BME280;54864;52.002;5.468;2022-08-06T04:43:04;102557.75;;;12.97;67.13
68075;BME280;54864;52.002;5.468;2022-08-06T04:44:27;102563.19;;;12.93;67.47
68075;BME280;54864;52.002;5.468;2022-08-06T04:45:50;102557.69;;;13.00;67.05
68075;BME280;54864;52.002;5.468;2022-08-06T04:47:11;102566.78;;;12.90;67.55
68075;BME280;54864;52.002;5.468;2022-08-06T04:48:34;102559.44;;;13.00;67.07
68075;BME280;54864;52.002;5.468;2022-08-06T04:49:58;102559.66;;;12.92;67.54
68075;BME280;54864;52.002;5.468;2022-08-06T04:51:22;102566.81;;;12.89;67.56
68075;BME280;54864;52.002;5.468;2022-08-06T04:52:44;102566.50;;;13.01;67.22
68075;BME280;54864;52.002;5.468;2022-08-06T04:54:06;102566.56;;;12.98;67.41
68075;BME280;54864;52.002;5.468;2022-08-06T04:55:28;102561.56;;;12.87;67.67
68075;BME280;54864;52.002;5.468;2022-08-06T04:56:49;102571.81;;;12.99;67.44
68075;BME280;54864;52.002;5.468;2022-08-06T04:58:13;102574.34;;;13.06;67.33
68075;BME280;54864;52.002;5.468;2022-08-06T04:59:36;102578.59;;;13.11;67.70
68075;BME280;54864;52.002;5.468;2022-08-06T05:00:59;102578.47;;;13.16;67.22
68075;BME280;54864;52.002;5.468;2022-08-06T05:02:20;102584.72;;;13.13;67.54
68075;BME280;54864;52.002;5.468;2022-08-06T05:03:43;102578.44;;;13.17;67.45
68075;BME280;54864;52.002;5.468;2022-08-06T05:05:07;102583.63;;;13.22;67.15
68075;BME280;54864;52.002;5.468;2022-08-06T05:06:38;102579.41;;;13.13;67.50
68075;BME280;54864;52.002;5.468;2022-08-06T05:08:06;102585.53;;;13.15;67.68
68075;BME280;54864;52.002;5.468;2022-08-06T05:09:28;102585.28;;;13.26;67.33
68075;BME280;54864;52.002;5.468;2022-08-06T05:10:53;102586.00;;;13.31;67.21
68075;BME280;54864;52.002;5.468;2022-08-06T05:12:20;102587.56;;;13.38;66.92
68075;BME280;54864;52.002;5.468;2022-08-06T05:13:46;102592.09;;;13.35;67.30
68075;BME280;54864;52.002;5.468;2022-08-06T05:15:16;102590.31;;;13.35;67.22
68075;BME280;54864;52.002;5.468;2022-08-06T05:16:44;102591.63;;;13.50;66.56
68075;BME280;54864;52.002;5.468;2022-08-06T05:18:10;102589.13;;;13.45;66.86
68075;BME280;54864;52.002;5.468;2022-08-06T05:19:46;102596.13;;;13.48;66.98
68075;BME280;54864;52.002;5.468;2022-08-06T05:21:16;102592.69;;;13.44;67.25
68075;BME280;54864;52.002;5.468;2022-08-06T05:22:44;102599.28;;;13.60;66.71
68075;BME280;54864;52.002;5.468;2022-08-06T05:24:07;102591.50;;;13.54;67.07
68075;BME280;54864;52.002;5.468;2022-08-06T05:25:31;102604.56;;;13.60;66.97
68075;BME280;54864;52.002;5.468;2022-08-06T05:26:54;102601.78;;;13.65;67.10
68075;BME280;54864;52.002;5.468;2022-08-06T05:28:17;102607.72;;;13.75;66.65
68075;BME280;54864;52.002;5.468;2022-08-06T05:29:39;102593.53;;;13.76;66.92
68075;BME280;54864;52.002;5.468;2022-08-06T05:31:01;102593.53;;;13.76;66.95
68075;BME280;54864;52.002;5.468;2022-08-06T05:32:24;102581.03;;;13.81;66.95
68075;BME280;54864;52.002;5.468;2022-08-06T05:33:45;102599.19;;;13.93;66.51
68075;BME280;54864;52.002;5.468;2022-08-06T05:35:07;102602.63;;;13.96;66.59
68075;BME280;54864;52.002;5.468;2022-08-06T05:36:30;102600.84;;;13.97;66.97
68075;BME280;54864;52.002;5.468;2022-08-06T05:37:52;102607.09;;;13.94;66.66
68075;BME280;54864;52.002;5.468;2022-08-06T05:39:13;102600.94;;;13.94;67.13
68075;BME280;54864;52.002;5.468;2022-08-06T05:40:35;102602.34;;;14.06;66.91
68075;BME280;54864;52.002;5.468;2022-08-06T05:41:57;102616.41;;;14.08;66.65
68075;BME280;54864;52.002;5.468;2022-08-06T05:43:19;102616.06;;;14.18;66.64
68075;BME280;54864;52.002;5.468;2022-08-06T05:44:41;102610.63;;;14.23;67.00
68075;BME280;54864;52.002;5.468;2022-08-06T05:46:07;102617.56;;;14.27;66.68
68075;BME280;54864;52.002;5.468;2022-08-06T05:47:32;102621.75;;;14.36;66.66
68075;BME280;54864;52.002;5.468;2022-08-06T05:49:02;102621.75;;;14.36;66.61
68075;BME280;54864;52.002;5.468;2022-08-06T05:50:29;102620.69;;;14.41;66.73
68075;BME280;54864;52.002;5.468;2022-08-06T05:52:02;102616.03;;;14.49;66.35
68075;BME280;54864;52.002;5.468;2022-08-06T05:53:30;102620.41;;;14.50;66.64
68075;BME280;54864;52.002;5.468;2022-08-06T05:55:00;102618.97;;;14.67;66.23
68075;BME280;54864;52.002;5.468;2022-08-06T05:56:28;102615.59;;;14.62;66.55
68075;BME280;54864;52.002;5.468;2022-08-06T05:57:54;102621.56;;;14.68;65.96
68075;BME280;54864;52.002;5.468;2022-08-06T05:59:23;102625.88;;;14.72;66.58
68075;BME280;54864;52.002;5.468;2022-08-06T06:00:46;102616.94;;;14.75;66.22
68075;BME280;54864;52.002;5.468;2022-08-06T06:02:11;102614.28;;;14.75;66.65
68075;BME280;54864;52.002;5.468;2022-08-06T06:03:35;102621.09;;;14.82;66.11
68075;BME280;54864;52.002;5.468;2022-08-06T06:04:59;102625.28;;;14.89;66.11
68075;BME280;54864;52.002;5.468;2022-08-06T06:06:22;102627.72;;;14.97;66.18
68075;BME280;54864;52.002;5.468;2022-08-06T06:07:46;102627.84;;;14.92;66.32
68075;BME280;54864;52.002;5.468;2022-08-06T06:09:08;102622.75;;;14.86;67.05
68075;BME280;54864;52.002;5.468;2022-08-06T06:10:31;102621.75;;;14.88;67.19
68075;BME280;54864;52.002;5.468;2022-08-06T06:11:56;102629.28;;;15.02;66.48
68075;BME280;54864;52.002;5.468;2022-08-06T06:13:17;102630.09;;;15.04;66.34
68075;BME280;54864;52.002;5.468;2022-08-06T06:14:42;102630.69;;;15.12;66.31
68075;BME280;54864;52.002;5.468;2022-08-06T06:16:10;102628.53;;;14.99;66.87
68075;BME280;54864;52.002;5.468;2022-08-06T06:17:48;102633.19;;;15.17;66.71
68075;BME280;54864;52.002;5.468;2022-08-06T06:19:25;102636.72;;;15.17;67.04
68075;BME280;54864;52.002;5.468;2022-08-06T06:20:58;102634.75;;;15.22;66.81
68075;BME280;54864;52.002;5.468;2022-08-06T06:22:28;102635.28;;;15.32;66.90
68075;BME280;54864;52.002;5.468;2022-08-06T06:24:02;102629.59;;;15.43;66.34
68075;BME280;54864;52.002;5.468;2022-08-06T06:25:32;102639.72;;;15.57;66.26
68075;BME280;54864;52.002;5.468;2022-08-06T06:27:00;102639.47;;;15.64;66.18
68075;BME280;54864;52.002;5.468;2022-08-06T06:28:28;102640.88;;;15.74;66.13
68075;BME280;54864;52.002;5.468;2022-08-06T06:29:59;102646.72;;;15.84;66.18
68075;BME280;54864;52.002;5.468;2022-08-06T06:31:30;102646.81;;;15.81;65.30
68075;BME280;54864;52.002;5.468;2022-08-06T06:33:04;102646.13;;;15.99;65.71
68075;BME280;54864;52.002;5.468;2022-08-06T06:34:51;102635.84;;;16.12;64.90
68075;BME280;54864;52.002;5.468;2022-08-06T06:36:22;102648.47;;;16.30;64.42
68075;BME280;54864;52.002;5.468;2022-08-06T06:38:02;102640.53;;;16.29;63.98
68075;BME280;54864;52.002;5.468;2022-08-06T06:39:39;102637.00;;;16.50;63.52
68075;BME280;54864;52.002;5.468;2022-08-06T06:41:08;102633.16;;;16.57;63.56
68075;BME280;54864;52.002;5.468;2022-08-06T06:42:36;102641.59;;;16.68;63.21
68075;BME280;54864;52.002;5.468;2022-08-06T06:44:07;102631.56;;;16.75;63.00
68075;BME280;54864;52.002;5.468;2022-08-06T06:45:49;102632.28;;;16.78;62.83
68075;BME280;54864;52.002;5.468;2022-08-06T06:47:25;102646.00;;;16.90;62.32
68075;BME280;54864;52.002;5.468;2022-08-06T06:48:55;102630.53;;;16.99;61.86
68075;BME280;54864;52.002;5.468;2022-08-06T06:50:23;102637.47;;;17.03;62.32
68075;BME280;54864;52.002;5.468;2022-08-06T06:51:50;102633.19;;;17.20;62.38
68075;BME280;54864;52.002;5.468;2022-08-06T06:53:15;102635.31;;;17.32;61.91
68075;BME280;54864;52.002;5.468;2022-08-06T06:54:42;102634.31;;;17.34;61.42
68075;BME280;54864;52.002;5.468;2022-08-06T06:56:08;102632.75;;;17.49;60.80
68075;BME280;54864;52.002;5.468;2022-08-06T06:57:35;102638.50;;;17.60;59.89
68075;BME280;54864;52.002;5.468;2022-08-06T06:59:02;102644.31;;;17.70;59.09
68075;BME280;54864;52.002;5.468;2022-08-06T07:00:26;102640.13;;;17.83;59.70
68075;BME280;54864;52.002;5.468;2022-08-06T07:01:50;102627.34;;;17.90;59.62
68075;BME280;54864;52.002;5.468;2022-08-06T07:03:16;102644.50;;;18.03;59.32
68075;BME280;54864;52.002;5.468;2022-08-06T07:04:40;102637.97;;;17.91;57.43
68075;BME280;54864;52.002;5.468;2022-08-06T07:06:04;102646.31;;;18.02;58.80
68075;BME280;54864;52.002;5.468;2022-08-06T07:07:30;102642.84;;;18.19;57.76
68075;BME280;54864;52.002;5.468;2022-08-06T07:08:56;102643.50;;;18.05;57.30
68075;BME280;54864;52.002;5.468;2022-08-06T07:10:26;102645.81;;;17.94;56.81
68075;BME280;54864;52.002;5.468;2022-08-06T07:11:54;102625.38;;;18.12;56.15
68075;BME280;54864;52.002;5.468;2022-08-06T07:13:18;102651.38;;;18.09;56.04
68075;BME280;54864;52.002;5.468;2022-08-06T07:14:42;102648.63;;;18.10;54.95
68075;BME280;54864;52.002;5.468;2022-08-06T07:16:06;102653.75;;;18.15;54.64
68075;BME280;54864;52.002;5.468;2022-08-06T07:17:31;102642.84;;;18.38;55.27
68075;BME280;54864;52.002;5.468;2022-08-06T07:18:55;102639.22;;;18.39;54.09
68075;BME280;54864;52.002;5.468;2022-08-06T07:20:20;102648.13;;;18.21;54.79
68075;BME280;54864;52.002;5.468;2022-08-06T07:21:46;102647.75;;;18.10;55.17
68075;BME280;54864;52.002;5.468;2022-08-06T07:23:09;102633.69;;;18.25;55.43
68075;BME280;54864;52.002;5.468;2022-08-06T07:24:33;102639.72;;;18.47;54.85
68075;BME280;54864;52.002;5.468;2022-08-06T07:25:58;102645.50;;;18.38;53.96
68075;BME280;54864;52.002;5.468;2022-08-06T07:27:20;102653.22;;;18.63;53.92
68075;BME280;54864;52.002;5.468;2022-08-06T07:28:43;102641.91;;;18.75;53.88